Time;durP1;ratioP1;P1;durP2;ratioP2;P2;SDS_P1;SDS_P2;PMS_P1;PMS_P2;Temp;Humidity;BMP_temperature;BMP_pressure;BME280_temperature;BME280_humidity;BME280_pressure;Samples;Min_cycle;Max_cycle;Signal;HPM_P1;HPM_P2
2022/04/12 00:02:23;;;;;;;0.22;0.20;;;;;;;;;;4939711;29;20465;-82
2022/04/12 00:04:52;;;;;;;0.20;0.20;;;;;;;;;;4939996;29;20073;-83
2022/04/12 00:07:32;;;;;;;0.47;0.45;;;;;;;;;;4940375;29;20027;-82
2022/04/12 00:09:58;;;;;;;0.00;0.00;;;;;;;;;;4939486;29;20028;-82
2022/04/12 00:12:26;;;;;;;0.13;0.13;;;;;;;;;;4920254;29;20079;-82
2022/04/12 00:14:58;;;;;;;0.28;0.20;;;;;;;;;;4939613;29;20036;-82
2022/04/12 00:20:57;;;;;;;0.08;0.05;;;;;;;;;;4934603;29;20088;-81
2022/04/12 00:23:23;;;;;;;0.08;0.05;;;;;;;;;;4932488;29;20028;-81
2022/04/12 00:25:48;;;;;;;0.20;0.20;;;;;;;;;;4939757;29;20031;-81
2022/04/12 00:28:14;;;;;;;0.00;0.00;;;;;;;;;;4939761;29;20043;-83
2022/04/12 00:30:40;;;;;;;0.10;0.10;;;;;;;;;;4938631;29;20066;-82
2022/04/12 00:33:08;;;;;;;1.60;0.20;;;;;;;;;;4938696;29;20059;-82
2022/04/12 00:35:36;;;;;;;0.32;0.32;;;;;;;;;;4919950;29;20028;-81
2022/04/12 00:38:13;;;;;;;1.50;0.85;;;;;;;;;;4935570;29;20457;-83
2022/04/12 00:40:39;;;;;;;1.45;0.30;;;;;;;;;;4939733;29;20035;-82
2022/04/12 00:43:07;;;;;;;0.05;0.00;;;;;;;;;;4930511;29;20115;-83
2022/04/12 00:45:35;;;;;;;0.00;0.00;;;;;;;;;;4938346;29;20114;-82
2022/04/12 00:48:00;;;;;;;0.08;0.08;;;;;;;;;;4939408;29;20098;-82
2022/04/12 00:50:25;;;;;;;0.40;0.40;;;;;;;;;;4938479;29;20020;-81
2022/04/12 00:52:52;;;;;;;0.25;0.25;;;;;;;;;;4938911;29;20035;-81
2022/04/12 00:55:18;;;;;;;0.30;0.20;;;;;;;;;;4938413;29;20028;-83
2022/04/12 00:57:43;;;;;;;0.00;0.00;;;;;;;;;;4921502;29;20028;-83
2022/04/12 01:00:10;;;;;;;3.72;0.30;;;;;;;;;;4942880;29;20047;-83
2022/04/12 01:02:36;;;;;;;0.38;0.38;;;;;;;;;;4941780;29;20442;-84
2022/04/12 01:05:03;;;;;;;1.27;0.60;;;;;;;;;;4930220;29;20042;-83
2022/04/12 01:07:31;;;;;;;0.10;0.10;;;;;;;;;;4938509;29;20058;-82
2022/04/12 01:09:58;;;;;;;0.90;0.52;;;;;;;;;;4922402;29;20349;-82
2022/04/12 01:12:28;;;;;;;2.83;0.47;;;;;;;;;;4938195;29;20450;-82
2022/04/12 01:14:56;;;;;;;0.20;0.20;;;;;;;;;;4939079;29;20086;-83
2022/04/12 01:17:24;;;;;;;6.30;1.08;;;;;;;;;;4938192;29;20449;-83
2022/04/12 01:19:49;;;;;;;0.17;0.17;;;;;;;;;;4931709;29;20372;-82
2022/04/12 01:22:21;;;;;;;0.05;0.05;;;;;;;;;;4931584;29;20046;-81
2022/04/12 01:24:47;;;;;;;0.00;0.00;;;;;;;;;;4922404;29;20042;-80
2022/04/12 01:27:12;;;;;;;1.83;0.60;;;;;;;;;;4938557;29;20123;-82
2022/04/12 01:29:42;;;;;;;0.22;0.22;;;;;;;;;;4938261;29;20060;-82
2022/04/12 01:32:08;;;;;;;0.10;0.10;;;;;;;;;;4938890;29;20039;-82
2022/04/12 01:34:37;;;;;;;0.20;0.20;;;;;;;;;;4918549;29;20024;-82
2022/04/12 01:37:03;;;;;;;0.35;0.30;;;;;;;;;;4921707;29;20031;-83
2022/04/12 01:39:32;;;;;;;0.28;0.28;;;;;;;;;;4938074;29;20438;-82
2022/04/12 01:41:58;;;;;;;0.25;0.25;;;;;;;;;;4937781;29;20039;-82
2022/04/12 01:44:23;;;;;;;0.85;0.43;;;;;;;;;;4938370;29;20058;-82
2022/04/12 01:46:48;;;;;;;0.10;0.10;;;;;;;;;;4921511;29;20338;-82
2022/04/12 01:49:13;;;;;;;0.65;0.57;;;;;;;;;;4938627;29;20114;-81
2022/04/12 01:51:42;;;;;;;0.05;0.05;;;;;;;;;;4933648;29;20042;-84
2022/04/12 01:54:07;;;;;;;0.20;0.20;;;;;;;;;;4945860;29;20042;-83
2022/04/12 01:56:34;;;;;;;1.60;1.20;;;;;;;;;;4949990;29;20012;-81
2022/04/12 01:59:02;;;;;;;0.10;0.10;;;;;;;;;;4940455;29;20027;-82
2022/04/12 02:01:27;;;;;;;0.35;0.35;;;;;;;;;;4935731;29;20079;-82
2022/04/12 02:03:53;;;;;;;0.10;0.10;;;;;;;;;;4927172;29;20032;-81
2022/04/12 02:06:23;;;;;;;0.28;0.28;;;;;;;;;;4933462;29;20019;-82
2022/04/12 02:08:48;;;;;;;0.10;0.10;;;;;;;;;;4937031;29;20404;-80
2022/04/12 02:11:13;;;;;;;0.00;0.00;;;;;;;;;;4937329;29;20050;-81
2022/04/12 02:13:39;;;;;;;1.17;0.55;;;;;;;;;;4930008;29;20042;-82
2022/04/12 02:16:06;;;;;;;0.63;0.55;;;;;;;;;;4937974;29;20598;-82
2022/04/12 02:18:32;;;;;;;0.20;0.20;;;;;;;;;;4936346;29;20139;-80
2022/04/12 02:20:57;;;;;;;0.10;0.10;;;;;;;;;;4920377;29;20060;-81
2022/04/12 02:23:22;;;;;;;0.45;0.20;;;;;;;;;;4938065;29;20101;-81
2022/04/12 02:25:48;;;;;;;1.00;0.55;;;;;;;;;;4937694;29;20110;-82
2022/04/12 02:28:15;;;;;;;0.50;0.50;;;;;;;;;;4936934;29;20170;-82
2022/04/12 02:30:43;;;;;;;0.95;0.22;;;;;;;;;;4936668;29;20088;-81
2022/04/12 02:33:11;;;;;;;0.15;0.15;;;;;;;;;;4937289;29;20043;-82
2022/04/12 02:35:37;;;;;;;0.30;0.10;;;;;;;;;;4936069;29;20110;-82
2022/04/12 02:38:02;;;;;;;3.17;0.95;;;;;;;;;;4937864;29;20106;-81
2022/04/12 02:40:28;;;;;;;0.55;0.43;;;;;;;;;;4937363;29;20035;-82
2022/04/12 02:42:55;;;;;;;0.88;0.88;;;;;;;;;;4917672;29;20047;-80
2022/04/12 02:45:23;;;;;;;0.80;0.47;;;;;;;;;;4924622;29;20091;-82
2022/04/12 02:47:48;;;;;;;0.03;0.03;;;;;;;;;;4937590;29;20035;-82
2022/04/12 02:50:16;;;;;;;0.15;0.15;;;;;;;;;;4936559;29;20357;-82
2022/04/12 02:52:41;;;;;;;0.40;0.40;;;;;;;;;;4936156;29;20027;-83
2022/04/12 02:55:09;;;;;;;0.10;0.10;;;;;;;;;;4936440;29;20020;-82
2022/04/12 02:57:36;;;;;;;0.20;0.20;;;;;;;;;;4937442;29;20034;-82
2022/04/12 03:00:03;;;;;;;0.10;0.10;;;;;;;;;;4937526;29;20111;-81
2022/04/12 03:02:31;;;;;;;0.20;0.20;;;;;;;;;;4937360;29;20035;-82
2022/04/12 03:04:56;;;;;;;0.20;0.20;;;;;;;;;;4936540;29;20023;-82
2022/04/12 03:07:22;;;;;;;0.20;0.20;;;;;;;;;;4935844;29;20038;-81
2022/04/12 03:09:47;;;;;;;0.25;0.22;;;;;;;;;;4937014;29;20086;-83
2022/04/12 03:12:15;;;;;;;0.75;0.47;;;;;;;;;;4929383;29;20043;-83
2022/04/12 03:14:40;;;;;;;0.15;0.15;;;;;;;;;;4918399;29;20434;-82
2022/04/12 03:17:05;;;;;;;0.25;0.25;;;;;;;;;;4918265;29;20036;-82
2022/04/12 03:19:31;;;;;;;0.73;0.25;;;;;;;;;;4936130;29;20445;-83
2022/04/12 03:21:58;;;;;;;0.40;0.40;;;;;;;;;;4936374;29;20035;-83
2022/04/12 03:24:24;;;;;;;0.77;0.77;;;;;;;;;;4937139;29;20036;-81
2022/04/12 03:26:51;;;;;;;0.20;0.20;;;;;;;;;;4937005;29;20035;-82
2022/04/12 03:29:18;;;;;;;0.10;0.10;;;;;;;;;;4937615;29;20024;-82
2022/04/12 03:31:45;;;;;;;0.20;0.20;;;;;;;;;;4940309;29;20028;-82
2022/04/12 03:34:11;;;;;;;1.17;0.20;;;;;;;;;;4943225;29;20066;-82
2022/04/12 03:36:36;;;;;;;1.02;0.93;;;;;;;;;;4945263;29;20090;-83
2022/04/12 03:39:04;;;;;;;0.10;0.10;;;;;;;;;;4946124;29;20044;-84
2022/04/12 03:41:30;;;;;;;0.38;0.30;;;;;;;;;;4941229;29;20051;-83
2022/04/12 03:43:58;;;;;;;0.15;0.15;;;;;;;;;;4926080;29;20039;-84
2022/04/12 03:46:23;;;;;;;0.43;0.30;;;;;;;;;;4943541;29;20027;-82
2022/04/12 03:48:48;;;;;;;2.22;0.60;;;;;;;;;;4941942;29;20027;-81
2022/04/12 03:51:13;;;;;;;0.47;0.35;;;;;;;;;;4940022;29;20040;-82
2022/04/12 03:53:39;;;;;;;0.75;0.40;;;;;;;;;;4939807;29;20030;-82
2022/04/12 03:56:09;;;;;;;0.22;0.22;;;;;;;;;;4940286;29;20038;-82
2022/04/12 03:58:37;;;;;;;0.10;0.10;;;;;;;;;;4939419;29;20031;-81
2022/04/12 04:01:06;;;;;;;0.10;0.10;;;;;;;;;;4935364;29;20024;-81
2022/04/12 04:03:32;;;;;;;0.50;0.50;;;;;;;;;;4927839;29;20031;-79
2022/04/12 04:06:00;;;;;;;0.30;0.30;;;;;;;;;;4922443;29;20579;-81
2022/04/12 04:08:25;;;;;;;0.80;0.80;;;;;;;;;;4939516;29;20153;-81
2022/04/12 04:10:51;;;;;;;0.30;0.30;;;;;;;;;;4939534;29;20027;-82
2022/04/12 04:13:21;;;;;;;0.20;0.20;;;;;;;;;;4923278;29;20405;-83
2022/04/12 04:15:46;;;;;;;0.50;0.50;;;;;;;;;;4932679;29;20051;-83
2022/04/12 04:18:15;;;;;;;2.17;0.75;;;;;;;;;;4939569;29;20457;-83
2022/04/12 04:20:42;;;;;;;0.30;0.30;;;;;;;;;;4940266;29;20564;-83
2022/04/12 04:23:07;;;;;;;0.55;0.55;;;;;;;;;;4937840;29;20043;-83
2022/04/12 04:25:35;;;;;;;0.10;0.10;;;;;;;;;;4939472;29;20027;-81
2022/04/12 04:28:01;;;;;;;0.30;0.30;;;;;;;;;;4938809;29;20031;-81
2022/04/12 04:30:26;;;;;;;0.50;0.50;;;;;;;;;;4940069;29;20034;-83
2022/04/12 04:32:52;;;;;;;0.43;0.43;;;;;;;;;;4939952;29;20031;-79
2022/04/12 04:35:17;;;;;;;0.03;0.03;;;;;;;;;;4938677;29;20394;-83
2022/04/12 04:37:43;;;;;;;0.10;0.10;;;;;;;;;;4926714;29;20050;-82
2022/04/12 04:40:16;;;;;;;2.00;0.93;;;;;;;;;;4938522;29;20062;-82
2022/04/12 04:42:42;;;;;;;;;;;;;;;;;;4939421;29;20046;-83
2022/04/12 04:45:08;;;;;;;0.22;0.20;;;;;;;;;;4938702;29;19953;-82
2022/04/12 04:47:34;;;;;;;1.55;0.40;;;;;;;;;;4938804;29;20477;-82
2022/04/12 04:50:02;;;;;;;0.90;0.90;;;;;;;;;;4939461;29;20035;-83
2022/04/12 04:52:30;;;;;;;0.82;0.40;;;;;;;;;;4930465;29;20046;-83
2022/04/12 04:54:55;;;;;;;0.45;0.45;;;;;;;;;;4924230;29;20111;-83
2022/04/12 04:57:20;;;;;;;0.15;0.15;;;;;;;;;;4939582;29;20111;-83
2022/04/12 04:59:45;;;;;;;0.43;0.43;;;;;;;;;;4939291;29;20034;-82
2022/04/12 05:02:11;;;;;;;1.45;1.35;;;;;;;;;;4939521;29;20389;-81
2022/04/12 05:04:36;;;;;;;0.10;0.10;;;;;;;;;;4939179;29;20497;-83
2022/04/12 05:07:01;;;;;;;1.27;0.40;;;;;;;;;;4935886;29;20051;-83
2022/04/12 05:09:27;;;;;;;0.20;0.20;;;;;;;;;;4931772;29;20562;-83
2022/04/12 05:11:54;;;;;;;0.35;0.35;;;;;;;;;;4938522;29;20035;-82
2022/04/12 05:14:20;;;;;;;0.35;0.30;;;;;;;;;;4939576;29;20371;-83
2022/04/12 05:16:45;;;;;;;1.42;0.70;;;;;;;;;;4938704;29;20042;-82
2022/04/12 05:19:10;;;;;;;0.15;0.15;;;;;;;;;;4937738;29;20028;-82
2022/04/12 05:21:36;;;;;;;1.55;0.47;;;;;;;;;;4939178;29;20031;-81
2022/04/12 05:24:01;;;;;;;3.30;0.77;;;;;;;;;;4921936;29;20059;-80
2022/04/12 05:26:26;;;;;;;0.17;0.17;;;;;;;;;;4936630;29;20044;-81
2022/04/12 05:28:56;;;;;;;0.95;0.55;;;;;;;;;;4938859;29;20059;-83
2022/04/12 05:31:22;;;;;;;0.15;0.15;;;;;;;;;;4939074;29;20048;-82
2022/04/12 05:33:49;;;;;;;0.98;0.82;;;;;;;;;;4940893;29;20031;-83
2022/04/12 05:36:15;;;;;;;0.13;0.13;;;;;;;;;;4943297;29;20032;-82
2022/04/12 05:38:40;;;;;;;1.70;1.23;;;;;;;;;;4938377;29;20115;-81
2022/04/12 05:41:05;;;;;;;0.30;0.30;;;;;;;;;;4938705;29;20038;-80
2022/04/12 05:43:30;;;;;;;2.17;0.30;;;;;;;;;;4938864;29;20102;-81
2022/04/12 05:45:56;;;;;;;0.60;0.60;;;;;;;;;;4938377;29;20027;-82
2022/04/12 05:48:24;;;;;;;2.28;2.08;;;;;;;;;;4938525;29;20046;-82
2022/04/12 05:50:52;;;;;;;0.38;0.38;;;;;;;;;;4938738;29;20031;-82
2022/04/12 05:53:22;;;;;;;0.57;0.30;;;;;;;;;;4930531;29;20064;-84
2022/04/12 05:55:53;;;;;;;0.90;0.90;;;;;;;;;;4927772;29;20035;-83
2022/04/12 05:58:18;;;;;;;1.55;0.68;;;;;;;;;;4931710;29;20032;-83
2022/04/12 06:00:46;;;;;;;0.30;0.30;;;;;;;;;;4928750;29;20092;-83
2022/04/12 06:03:12;;;;;;;0.45;0.43;;;;;;;;;;4919494;29;20043;-83
2022/04/12 06:05:37;;;;;;;0.57;0.50;;;;;;;;;;4927298;29;20055;-81
2022/04/12 06:08:03;;;;;;;0.10;0.10;;;;;;;;;;4918486;29;20027;-82
2022/04/12 06:10:29;;;;;;;0.15;0.15;;;;;;;;;;4919682;29;20339;-81
2022/04/12 06:12:54;;;;;;;0.32;0.32;;;;;;;;;;4934734;29;20046;-82
2022/04/12 06:15:20;;;;;;;0.43;0.43;;;;;;;;;;4938004;29;20090;-82
2022/04/12 06:17:45;;;;;;;0.75;0.65;;;;;;;;;;4938086;29;20042;-83
2022/04/12 06:20:15;;;;;;;0.85;0.35;;;;;;;;;;4937319;29;20034;-82
2022/04/12 06:22:41;;;;;;;0.10;0.10;;;;;;;;;;4936329;29;20474;-83
2022/04/12 06:25:08;;;;;;;0.03;0.03;;;;;;;;;;4937078;29;20031;-82
2022/04/12 06:27:36;;;;;;;0.55;0.52;;;;;;;;;;4932902;29;20089;-81
2022/04/12 06:30:11;;;;;;;0.75;0.63;;;;;;;;;;4919440;29;20511;-81
2022/04/12 06:32:39;;;;;;;0.00;0.00;;;;;;;;;;4925150;29;20479;-80
2022/04/12 06:35:06;;;;;;;0.15;0.15;;;;;;;;;;4922252;29;20071;-81
2022/04/12 06:37:34;;;;;;;0.28;0.25;;;;;;;;;;4940975;29;20107;-82
2022/04/12 06:40:00;;;;;;;0.10;0.10;;;;;;;;;;4922998;29;20039;-83
2022/04/12 06:42:25;;;;;;;0.30;0.30;;;;;;;;;;4927870;29;20032;-81
2022/04/12 06:44:56;;;;;;;0.20;0.20;;;;;;;;;;4919917;29;20039;-82
2022/04/12 06:47:21;;;;;;;0.73;0.65;;;;;;;;;;4937177;29;20558;-82
2022/04/12 06:49:48;;;;;;;0.95;0.73;;;;;;;;;;4936025;29;20051;-82
2022/04/12 06:52:14;;;;;;;0.80;0.70;;;;;;;;;;4935511;29;20109;-82
2022/04/12 06:54:40;;;;;;;0.10;0.10;;;;;;;;;;4936217;29;20381;-83
2022/04/12 06:57:06;;;;;;;0.13;0.13;;;;;;;;;;4934741;29;20027;-82
2022/04/12 06:59:32;;;;;;;0.75;0.38;;;;;;;;;;4919625;29;20023;-82
2022/04/12 07:01:58;;;;;;;0.30;0.30;;;;;;;;;;4933445;29;20105;-82
2022/04/12 07:04:23;;;;;;;0.73;0.63;;;;;;;;;;4925543;29;20020;-83
2022/04/12 07:06:48;;;;;;;7.70;0.52;;;;;;;;;;4934848;29;20023;-85
2022/04/12 07:09:20;;;;;;;2.28;0.30;;;;;;;;;;4934148;29;20050;-82
2022/04/12 07:11:49;;;;;;;0.80;0.70;;;;;;;;;;4929121;29;20023;-82
2022/04/12 07:14:14;;;;;;;0.35;0.35;;;;;;;;;;4943770;29;20037;-82
2022/04/12 07:16:39;;;;;;;0.38;0.35;;;;;;;;;;4939898;28;20036;-83
2022/04/12 07:19:05;;;;;;;0.70;0.45;;;;;;;;;;4937320;29;20024;-84
2022/04/12 07:21:39;;;;;;;0.47;0.47;;;;;;;;;;4937275;29;20059;-84
2022/04/12 07:24:05;;;;;;;0.28;0.28;;;;;;;;;;4955626;28;20433;-84
2022/04/12 07:26:36;;;;;;;0.68;0.65;;;;;;;;;;4956931;28;20102;-82
2022/04/12 07:29:04;;;;;;;0.50;0.25;;;;;;;;;;4928804;29;20038;-83
2022/04/12 07:31:30;;;;;;;2.00;1.05;;;;;;;;;;4938121;29;20020;-83
2022/04/12 07:33:58;;;;;;;1.10;0.55;;;;;;;;;;4921105;29;20468;-81
2022/04/12 07:36:23;;;;;;;1.00;0.75;;;;;;;;;;4936927;29;20516;-82
2022/04/12 07:38:49;;;;;;;2.72;0.90;;;;;;;;;;4937316;29;20059;-83
2022/04/12 07:41:15;;;;;;;1.45;0.85;;;;;;;;;;4936302;29;20429;-83
2022/04/12 07:43:42;;;;;;;1.20;0.98;;;;;;;;;;4936332;29;20031;-83
2022/04/12 07:46:08;;;;;;;1.05;0.73;;;;;;;;;;4936424;29;20030;-82
2022/04/12 07:48:33;;;;;;;1.65;0.40;;;;;;;;;;4937380;29;20032;-81
2022/04/12 07:50:58;;;;;;;2.58;1.30;;;;;;;;;;4937327;29;20038;-82
2022/04/12 07:53:24;;;;;;;1.52;0.70;;;;;;;;;;4936344;29;20035;-84
2022/04/12 07:55:49;;;;;;;2.00;0.57;;;;;;;;;;4924587;29;20327;-84
2022/04/12 07:58:18;;;;;;;1.45;0.88;;;;;;;;;;4917777;29;20098;-82
2022/04/12 08:00:48;;;;;;;0.80;0.60;;;;;;;;;;4918259;29;20028;-84
2022/04/12 08:03:16;;;;;;;1.13;0.98;;;;;;;;;;4926479;29;20039;-84
2022/04/12 08:05:41;;;;;;;0.88;0.63;;;;;;;;;;4938699;29;20032;-84
2022/04/12 08:08:06;;;;;;;0.20;0.20;;;;;;;;;;4938203;29;20031;-84
2022/04/12 08:10:32;;;;;;;0.57;0.47;;;;;;;;;;4928988;29;20039;-83
2022/04/12 08:12:57;;;;;;;0.20;0.20;;;;;;;;;;4919532;29;20047;-83
2022/04/12 08:15:26;;;;;;;0.20;0.20;;;;;;;;;;4917977;29;20039;-83
2022/04/12 08:17:53;;;;;;;1.40;0.95;;;;;;;;;;4937072;29;20330;-83
2022/04/12 08:20:19;;;;;;;0.20;0.20;;;;;;;;;;4943736;29;20031;-84
2022/04/12 08:22:46;;;;;;;0.17;0.17;;;;;;;;;;4943201;29;20027;-84
2022/04/12 08:25:12;;;;;;;0.43;0.43;;;;;;;;;;4935738;29;20046;-80
2022/04/12 08:27:37;;;;;;;0.32;0.20;;;;;;;;;;4924017;29;20103;-83
2022/04/12 08:30:06;;;;;;;0.08;0.08;;;;;;;;;;4940308;29;20062;-81
2022/04/12 08:32:33;;;;;;;0.22;0.22;;;;;;;;;;4940281;29;20023;-81
2022/04/12 08:34:58;;;;;;;0.32;0.32;;;;;;;;;;4922788;29;20031;-79
2022/04/12 08:37:24;;;;;;;0.15;0.15;;;;;;;;;;4939820;29;20039;-80
2022/04/12 08:39:49;;;;;;;6.53;0.50;;;;;;;;;;4940629;29;20106;-83
2022/04/12 08:42:14;;;;;;;0.28;0.25;;;;;;;;;;4929826;29;20039;-83
2022/04/12 08:44:45;;;;;;;1.15;0.45;;;;;;;;;;4943193;29;20119;-83
2022/04/12 08:47:15;;;;;;;0.20;0.20;;;;;;;;;;4945699;29;20043;-82
2022/04/12 08:49:42;;;;;;;0.52;0.43;;;;;;;;;;4946619;29;20422;-83
2022/04/12 08:52:11;;;;;;;0.10;0.10;;;;;;;;;;4942712;29;20358;-81
2022/04/12 08:54:41;;;;;;;0.25;0.25;;;;;;;;;;4931313;29;20034;-82
2022/04/12 08:57:06;;;;;;;1.15;0.45;;;;;;;;;;4941651;29;20031;-83
2022/04/12 08:59:36;;;;;;;2.63;0.25;;;;;;;;;;4944635;29;20088;-84
2022/04/12 09:02:05;;;;;;;0.20;0.20;;;;;;;;;;4946714;29;20023;-81
2022/04/12 09:04:32;;;;;;;0.10;0.10;;;;;;;;;;4942896;29;20043;-83
2022/04/12 09:07:01;;;;;;;1.00;0.68;;;;;;;;;;4940365;29;20087;-82
2022/04/12 09:09:30;;;;;;;0.30;0.30;;;;;;;;;;4940367;29;20031;-82
2022/04/12 09:12:13;;;;;;;0.50;0.40;;;;;;;;;;4938319;29;20035;-83
2022/04/12 09:14:52;;;;;;;0.85;0.45;;;;;;;;;;4934794;29;20453;-82
2022/04/12 09:17:34;;;;;;;1.00;0.65;;;;;;;;;;4940582;29;20031;-81
2022/04/12 09:19:59;;;;;;;1.90;0.45;;;;;;;;;;4940199;29;20028;-82
2022/04/12 09:22:26;;;;;;;0.20;0.17;;;;;;;;;;4939510;29;20529;-83
2022/04/12 09:24:53;;;;;;;0.10;0.10;;;;;;;;;;4939184;29;20102;-85
2022/04/12 09:27:23;;;;;;;3.03;0.98;;;;;;;;;;4922412;29;20074;-84
2022/04/12 09:29:52;;;;;;;0.30;0.30;;;;;;;;;;4933745;29;20437;-82
2022/04/12 09:32:25;;;;;;;0.20;0.10;;;;;;;;;;4938484;29;20039;-83
2022/04/12 09:34:52;;;;;;;2.42;0.50;;;;;;;;;;4938286;29;20028;-82
2022/04/12 09:37:26;;;;;;;0.10;0.10;;;;;;;;;;4938727;29;20041;-82
2022/04/12 09:39:59;;;;;;;0.05;0.05;;;;;;;;;;4935140;29;20038;-82
2022/04/12 09:42:49;;;;;;;0.28;0.28;;;;;;;;;;4933109;29;20115;-83
2022/04/12 09:45:27;;;;;;;1.23;0.70;;;;;;;;;;4934037;29;20345;-82
2022/04/12 09:47:54;;;;;;;0.35;0.30;;;;;;;;;;4926405;29;20028;-82
2022/04/12 09:50:23;;;;;;;0.52;0.52;;;;;;;;;;4938913;29;20032;-83
2022/04/12 09:52:57;;;;;;;0.73;0.52;;;;;;;;;;4936690;29;20035;-81
2022/04/12 09:55:32;;;;;;;0.15;0.15;;;;;;;;;;4934459;29;20024;-83
2022/04/12 09:57:58;;;;;;;0.43;0.35;;;;;;;;;;4936358;29;20364;-84
2022/04/12 10:00:24;;;;;;;0.10;0.10;;;;;;;;;;4929628;29;20111;-82
2022/04/12 10:02:54;;;;;;;0.20;0.20;;;;;;;;;;4932096;29;20445;-80
2022/04/12 10:05:19;;;;;;;0.20;0.20;;;;;;;;;;4922529;29;20024;-83
2022/04/12 10:07:45;;;;;;;0.38;0.25;;;;;;;;;;4931657;29;20028;-83
2022/04/12 10:10:10;;;;;;;0.30;0.30;;;;;;;;;;4923975;29;20393;-82
2022/04/12 10:12:36;;;;;;;0.30;0.30;;;;;;;;;;4935819;29;20035;-81
2022/04/12 10:15:01;;;;;;;0.65;0.65;;;;;;;;;;4924520;29;20032;-81
2022/04/12 10:17:29;;;;;;;0.20;0.17;;;;;;;;;;4927599;29;20233;-81
2022/04/12 10:19:55;;;;;;;1.25;0.63;;;;;;;;;;4946179;29;20047;-84
2022/04/12 10:22:20;;;;;;;0.32;0.32;;;;;;;;;;4933168;29;20042;-83
2022/04/12 10:24:46;;;;;;;0.20;0.20;;;;;;;;;;4925626;29;20032;-84
2022/04/12 10:27:11;;;;;;;0.82;0.43;;;;;;;;;;4928334;29;20056;-83
2022/04/12 10:29:36;;;;;;;0.75;0.32;;;;;;;;;;4942196;29;20430;-81
2022/04/12 10:32:04;;;;;;;0.38;0.38;;;;;;;;;;4940690;29;20031;-79
2022/04/12 10:34:29;;;;;;;0.25;0.25;;;;;;;;;;4937294;29;20027;-83
2022/04/12 10:36:57;;;;;;;0.63;0.63;;;;;;;;;;4929462;29;20032;-84
2022/04/12 10:39:29;;;;;;;5.47;0.40;;;;;;;;;;4929206;29;20457;-72
2022/04/12 10:41:58;;;;;;;;;;;;;;;;;;4915907;29;20043;-72
2022/04/12 10:44:25;;;;;;;0.70;0.30;;;;;;;;;;4932913;29;20251;-72
2022/04/12 10:46:51;;;;;;;0.32;0.32;;;;;;;;;;4934242;29;20028;-74
2022/04/12 10:49:22;;;;;;;0.20;0.20;;;;;;;;;;4936805;29;20023;-73
2022/04/12 10:51:56;;;;;;;0.80;0.35;;;;;;;;;;4909283;29;20460;-73
2022/04/12 10:54:33;;;;;;;0.90;0.17;;;;;;;;;;4920686;29;20044;-75
2022/04/12 10:57:17;;;;;;;0.15;0.15;;;;;;;;;;4932458;29;20048;-76
2022/04/12 11:00:05;;;;;;;0.20;0.20;;;;;;;;;;4919996;29;20377;-81
2022/04/12 11:02:58;;;;;;;0.28;0.28;;;;;;;;;;4934250;29;20038;-76
2022/04/12 11:05:46;;;;;;;4.53;1.10;;;;;;;;;;4926960;29;20032;-77
2022/04/12 11:08:14;;;;;;;0.10;0.10;;;;;;;;;;4910320;29;20047;-82
2022/04/12 11:10:54;;;;;;;0.17;0.17;;;;;;;;;;4930064;29;20774;-78
2022/04/12 11:13:20;;;;;;;0.30;0.30;;;;;;;;;;4935457;29;20039;-77
2022/04/12 11:15:54;;;;;;;0.10;0.10;;;;;;;;;;4920639;29;20032;-79
2022/04/12 11:18:22;;;;;;;0.30;0.30;;;;;;;;;;4920388;29;20079;-79
2022/04/12 11:21:01;;;;;;;1.08;0.55;;;;;;;;;;4922333;29;20064;-86
2022/04/12 11:23:45;;;;;;;2.08;0.52;;;;;;;;;;4935707;29;20028;-79
2022/04/12 11:26:40;;;;;;;0.30;0.30;;;;;;;;;;4935893;29;20060;-77
2022/04/12 11:29:19;;;;;;;0.55;0.47;;;;;;;;;;4926083;29;20449;-80
2022/04/12 11:31:54;;;;;;;0.90;0.75;;;;;;;;;;4911554;29;20055;-78
2022/04/12 11:34:25;;;;;;;0.73;0.70;;;;;;;;;;4934016;29;20118;-80
2022/04/12 11:36:58;;;;;;;0.20;0.20;;;;;;;;;;4923751;29;20319;-79
2022/04/12 11:39:43;;;;;;;0.15;0.15;;;;;;;;;;4932723;29;20035;-82
2022/04/12 11:42:13;;;;;;;0.30;0.30;;;;;;;;;;4939263;29;20102;-84
2022/04/12 11:44:39;;;;;;;0.47;0.25;;;;;;;;;;4940360;29;20410;-86
2022/04/12 11:47:09;;;;;;;0.35;0.30;;;;;;;;;;4915019;29;20110;-87
2022/04/12 11:49:40;;;;;;;0.30;0.20;;;;;;;;;;4912725;29;20043;-82
2022/04/12 11:52:11;;;;;;;0.22;0.22;;;;;;;;;;4939006;29;20062;-80
2022/04/12 11:54:38;;;;;;;0.45;0.45;;;;;;;;;;4938654;29;20023;-80
2022/04/12 11:57:06;;;;;;;0.30;0.30;;;;;;;;;;4923157;29;20246;-79
2022/04/12 11:59:34;;;;;;;0.40;0.20;;;;;;;;;;4937553;29;20135;-82
2022/04/12 12:02:04;;;;;;;0.30;0.30;;;;;;;;;;4939279;29;20027;-81
2022/04/12 12:04:31;;;;;;;0.30;0.30;;;;;;;;;;4939759;29;20088;-83
2022/04/12 12:07:05;;;;;;;0.35;0.35;;;;;;;;;;4939375;29;20026;-80
2022/04/12 12:09:31;;;;;;;0.30;0.30;;;;;;;;;;4938359;29;20449;-81
2022/04/12 12:12:07;;;;;;;0.40;0.30;;;;;;;;;;4934015;29;20078;-87
2022/04/12 12:14:33;;;;;;;0.30;0.30;;;;;;;;;;4939661;29;20027;-81
2022/04/12 12:17:12;;;;;;;0.32;0.32;;;;;;;;;;4921525;29;20032;-80
2022/04/12 12:19:41;;;;;;;0.85;0.22;;;;;;;;;;4930979;29;20031;-82
2022/04/12 12:22:09;;;;;;;0.52;0.40;;;;;;;;;;4932513;29;20042;-84
2022/04/12 12:24:48;;;;;;;0.30;0.30;;;;;;;;;;4923959;29;20184;-84
2022/04/12 12:27:15;;;;;;;0.20;0.20;;;;;;;;;;4922449;29;20055;-84
2022/04/12 12:29:43;;;;;;;0.30;0.30;;;;;;;;;;4923631;29;20106;-85
2022/04/12 12:32:16;;;;;;;0.80;0.43;;;;;;;;;;4922677;29;20119;-82
2022/04/12 12:34:46;;;;;;;0.95;0.57;;;;;;;;;;4922406;29;20031;-83
2022/04/12 12:37:12;;;;;;;0.55;0.30;;;;;;;;;;4922631;29;20050;-76
2022/04/12 12:39:39;;;;;;;0.10;0.10;;;;;;;;;;4939051;29;20035;-75
2022/04/12 12:42:05;;;;;;;0.10;0.10;;;;;;;;;;4938241;29;20027;-74
2022/04/12 12:44:37;;;;;;;0.08;0.08;;;;;;;;;;4938621;29;20034;-74
2022/04/12 12:47:06;;;;;;;0.30;0.30;;;;;;;;;;4939062;29;20027;-75
2022/04/12 12:49:38;;;;;;;0.28;0.28;;;;;;;;;;4939109;29;20457;-75
2022/04/12 12:52:06;;;;;;;0.57;0.57;;;;;;;;;;4939293;29;20118;-74
2022/04/12 12:54:32;;;;;;;7.47;1.00;;;;;;;;;;4938371;29;20059;-74
2022/04/12 12:57:01;;;;;;;0.60;0.30;;;;;;;;;;4938144;29;20047;-73
2022/04/12 12:59:31;;;;;;;0.52;0.47;;;;;;;;;;4940312;29;20324;-73
2022/04/12 13:01:57;;;;;;;0.98;0.40;;;;;;;;;;4938943;29;20462;-74
2022/04/12 13:04:31;;;;;;;0.20;0.20;;;;;;;;;;4939408;29;20038;-74
2022/04/12 13:07:10;;;;;;;1.33;0.28;;;;;;;;;;4921437;29;20110;-74
2022/04/12 13:09:40;;;;;;;1.45;0.55;;;;;;;;;;4918153;29;20043;-73
2022/04/12 13:12:08;;;;;;;0.10;0.10;;;;;;;;;;4925586;29;20028;-74
2022/04/12 13:14:34;;;;;;;0.10;0.10;;;;;;;;;;4937066;29;20576;-75
2022/04/12 13:17:00;;;;;;;0.10;0.10;;;;;;;;;;4937826;29;20053;-74
2022/04/12 13:19:31;;;;;;;0.08;0.08;;;;;;;;;;4920937;29;20353;-74
2022/04/12 13:21:58;;;;;;;0.73;0.17;;;;;;;;;;4937985;29;20024;-74
2022/04/12 13:24:26;;;;;;;0.20;0.20;;;;;;;;;;4938609;29;20056;-74
2022/04/12 13:26:56;;;;;;;0.25;0.20;;;;;;;;;;4936805;29;20040;-73
2022/04/12 13:29:22;;;;;;;0.10;0.10;;;;;;;;;;4927940;29;20023;-74
2022/04/12 13:31:47;;;;;;;0.00;0.00;;;;;;;;;;4938345;29;20098;-76
2022/04/12 13:34:13;;;;;;;0.38;0.28;;;;;;;;;;4936814;29;20035;-77
2022/04/12 13:36:42;;;;;;;1.52;0.73;;;;;;;;;;4929903;29;20087;-77
2022/04/12 13:39:10;;;;;;;0.32;0.15;;;;;;;;;;4936908;29;20132;-77
2022/04/12 13:41:40;;;;;;;0.17;0.17;;;;;;;;;;4934284;29;20079;-77
2022/04/12 13:44:07;;;;;;;0.20;0.20;;;;;;;;;;4928636;29;20046;-76
2022/04/12 13:46:32;;;;;;;1.10;0.32;;;;;;;;;;4932374;29;20054;-77
2022/04/12 13:49:00;;;;;;;0.90;0.45;;;;;;;;;;4924991;29;20458;-77
2022/04/12 13:51:26;;;;;;;0.45;0.40;;;;;;;;;;4927692;29;20086;-77
2022/04/12 13:53:51;;;;;;;0.32;0.32;;;;;;;;;;4928480;29;20095;-77
2022/04/12 13:56:17;;;;;;;0.77;0.35;;;;;;;;;;4928363;29;20230;-77
2022/04/12 13:58:42;;;;;;;0.08;0.08;;;;;;;;;;4932015;29;20048;-78
2022/04/12 14:01:07;;;;;;;0.65;0.32;;;;;;;;;;4938426;29;20027;-79
2022/04/12 14:03:33;;;;;;;0.10;0.10;;;;;;;;;;4936248;29;20036;-77
2022/04/12 14:06:05;;;;;;;0.20;0.20;;;;;;;;;;4932308;29;20032;-77
2022/04/12 14:08:32;;;;;;;0.20;0.20;;;;;;;;;;4926523;29;20470;-78
2022/04/12 14:11:01;;;;;;;4.68;1.02;;;;;;;;;;4923847;29;20405;-77
2022/04/12 14:13:28;;;;;;;0.85;0.68;;;;;;;;;;4926800;29;20402;-75
2022/04/12 14:15:53;;;;;;;0.47;0.25;;;;;;;;;;4937202;29;20322;-76
2022/04/12 14:18:19;;;;;;;0.40;0.35;;;;;;;;;;4937620;29;20035;-76
2022/04/12 14:20:45;;;;;;;0.95;0.22;;;;;;;;;;4936730;29;20082;-77
2022/04/12 14:23:10;;;;;;;0.30;0.30;;;;;;;;;;4930084;29;20095;-76
2022/04/12 14:25:36;;;;;;;0.25;0.25;;;;;;;;;;4925707;29;20464;-77
2022/04/12 14:28:02;;;;;;;1.30;0.20;;;;;;;;;;4928119;29;20654;-77
2022/04/12 14:30:31;;;;;;;0.10;0.10;;;;;;;;;;4929481;29;20028;-76
2022/04/12 14:32:56;;;;;;;0.30;0.28;;;;;;;;;;4931326;29;20034;-76
2022/04/12 14:35:21;;;;;;;0.80;0.30;;;;;;;;;;4928344;29;20353;-77
2022/04/12 14:37:47;;;;;;;0.40;0.32;;;;;;;;;;4928840;29;20083;-77
2022/04/12 14:40:12;;;;;;;0.43;0.40;;;;;;;;;;4931633;29;20095;-77
2022/04/12 14:42:40;;;;;;;0.38;0.20;;;;;;;;;;4924522;29;20043;-76
2022/04/12 14:45:06;;;;;;;0.17;0.17;;;;;;;;;;4926490;29;20513;-76
2022/04/12 14:47:31;;;;;;;0.00;0.00;;;;;;;;;;4924212;29;20031;-76
2022/04/12 14:50:01;;;;;;;0.10;0.10;;;;;;;;;;4915108;29;20349;-75
2022/04/12 14:52:27;;;;;;;0.40;0.40;;;;;;;;;;4927421;29;20020;-76